Time;durP1;ratioP1;P1;durP2;ratioP2;P2;SDS_P1;SDS_P2;PMS_P1;PMS_P2;Temp;Humidity;BMP_temperature;BMP_pressure;BME280_temperature;BME280_humidity;BME280_pressure;Samples;Min_cycle;Max_cycle;Signal;HPM_P1;HPM_P2
2022/05/10 00:00:48;;;;;;;9.80;4.35;;;;;;;;;;5037741;28;20402;-46
2022/05/10 00:03:14;;;;;;;9.68;3.80;;;;;;;;;;5036013;28;20029;-47
2022/05/10 00:05:40;;;;;;;9.40;4.05;;;;;;;;;;5052326;28;20037;-45
2022/05/10 00:08:08;;;;;;;8.48;4.00;;;;;;;;;;5027912;28;21672;-44
2022/05/10 00:10:34;;;;;;;10.70;4.30;;;;;;;;;;5054804;28;20036;-45
2022/05/10 00:13:00;;;;;;;7.65;3.60;;;;;;;;;;5044259;28;20053;-46
2022/05/10 00:15:26;;;;;;;9.63;3.88;;;;;;;;;;5051944;28;20057;-44
2022/05/10 00:17:52;;;;;;;8.60;3.80;;;;;;;;;;5053663;28;20029;-44
2022/05/10 00:20:23;;;;;;;7.40;3.78;;;;;;;;;;5043249;28;20465;-43
2022/05/10 00:22:50;;;;;;;8.10;3.60;;;;;;;;;;5046848;28;20124;-42
2022/05/10 00:25:17;;;;;;;7.35;3.63;;;;;;;;;;5056582;28;20036;-46
2022/05/10 00:27:43;;;;;;;9.32;4.55;;;;;;;;;;5041578;28;20108;-44
2022/05/10 00:30:09;;;;;;;7.45;3.72;;;;;;;;;;5054175;28;20500;-42
2022/05/10 00:32:36;;;;;;;6.57;3.20;;;;;;;;;;5034604;28;20094;-43
2022/05/10 00:35:04;;;;;;;9.00;3.67;;;;;;;;;;5047402;28;20457;-43
2022/05/10 00:37:31;;;;;;;12.40;4.75;;;;;;;;;;5051502;28;20021;-42
2022/05/10 00:39:57;;;;;;;7.60;3.40;;;;;;;;;;5052730;28;20021;-46
2022/05/10 00:42:27;;;;;;;6.90;3.15;;;;;;;;;;5052122;28;20378;-44
2022/05/10 00:45:02;;;;;;;7.72;3.50;;;;;;;;;;5047114;28;20033;-45
2022/05/10 00:47:46;;;;;;;8.68;3.97;;;;;;;;;;5047312;28;20111;-43
2022/05/10 00:50:18;;;;;;;8.43;3.50;;;;;;;;;;5062862;28;20033;-43
2022/05/10 00:53:13;;;;;;;7.97;3.03;;;;;;;;;;5052866;28;20033;-43
2022/05/10 00:55:45;;;;;;;7.82;3.60;;;;;;;;;;5039161;28;20512;-43
2022/05/10 00:58:19;;;;;;;9.77;3.80;;;;;;;;;;5056348;28;20055;-43
2022/05/10 01:00:46;;;;;;;8.32;3.38;;;;;;;;;;5055666;28;20124;-43
2022/05/10 01:03:31;;;;;;;6.63;3.10;;;;;;;;;;5050409;28;20032;-42
2022/05/10 01:06:17;;;;;;;6.15;2.78;;;;;;;;;;5049999;28;20481;-51
2022/05/10 01:08:57;;;;;;;7.05;3.38;;;;;;;;;;5051057;28;20424;-47
2022/05/10 01:11:28;;;;;;;8.73;3.40;;;;;;;;;;5048396;28;20025;-47
2022/05/10 01:14:04;;;;;;;6.82;2.85;;;;;;;;;;5055528;28;20024;-47
2022/05/10 01:16:30;;;;;;;8.02;3.30;;;;;;;;;;5049720;28;20017;-43
2022/05/10 01:18:56;;;;;;;5.85;3.20;;;;;;;;;;5050348;28;20032;-47
2022/05/10 01:21:37;;;;;;;8.07;3.38;;;;;;;;;;5051323;28;20029;-43
2022/05/10 01:24:11;;;;;;;6.38;3.05;;;;;;;;;;5050628;28;20095;-44
2022/05/10 01:26:42;;;;;;;8.65;3.50;;;;;;;;;;5042005;28;20032;-45
2022/05/10 01:29:11;;;;;;;7.18;3.75;;;;;;;;;;5049955;28;20056;-42
2022/05/10 01:31:43;;;;;;;7.00;2.92;;;;;;;;;;5050674;28;20029;-47
2022/05/10 01:34:12;;;;;;;7.07;2.95;;;;;;;;;;5048932;28;20057;-44
2022/05/10 01:36:42;;;;;;;7.38;3.03;;;;;;;;;;5034585;28;20035;-47
2022/05/10 01:39:14;;;;;;;7.75;2.90;;;;;;;;;;5051204;28;20044;-48
2022/05/10 01:41:47;;;;;;;6.07;2.63;;;;;;;;;;5036577;28;20027;-45
2022/05/10 01:44:19;;;;;;;9.23;3.10;;;;;;;;;;5047238;28;20064;-42
2022/05/10 01:46:48;;;;;;;7.40;2.92;;;;;;;;;;5048714;28;20337;-43
2022/05/10 01:49:27;;;;;;;5.78;2.47;;;;;;;;;;5046192;28;20025;-47
2022/05/10 01:51:56;;;;;;;6.00;3.13;;;;;;;;;;5048967;28;20059;-44
2022/05/10 01:54:40;;;;;;;7.50;2.35;;;;;;;;;;5047679;28;20473;-49
2022/05/10 01:57:11;;;;;;;6.93;3.15;;;;;;;;;;5039681;28;20083;-47
2022/05/10 01:59:37;;;;;;;8.65;2.70;;;;;;;;;;5052146;28;20033;-49
2022/05/10 02:02:04;;;;;;;7.63;3.72;;;;;;;;;;5035665;28;20454;-43
2022/05/10 02:04:32;;;;;;;6.90;2.88;;;;;;;;;;5051817;28;20076;-47
2022/05/10 02:07:03;;;;;;;9.17;2.60;;;;;;;;;;5052344;28;20029;-47
2022/05/10 02:09:32;;;;;;;5.60;2.80;;;;;;;;;;5030833;28;20036;-42
2022/05/10 02:12:04;;;;;;;7.18;2.78;;;;;;;;;;5050745;28;20017;-48
2022/05/10 02:14:33;;;;;;;6.03;2.58;;;;;;;;;;5041833;28;20119;-45
2022/05/10 02:17:18;;;;;;;9.10;3.00;;;;;;;;;;5049934;28;20031;-43
2022/05/10 02:19:47;;;;;;;7.30;3.30;;;;;;;;;;5048873;28;20032;-48
2022/05/10 02:22:21;;;;;;;7.25;2.85;;;;;;;;;;5046850;28;20045;-43
2022/05/10 02:24:53;;;;;;;7.80;2.55;;;;;;;;;;5043130;28;20092;-49
2022/05/10 02:27:21;;;;;;;5.25;2.42;;;;;;;;;;5055432;28;20075;-45
2022/05/10 02:29:49;;;;;;;5.88;2.83;;;;;;;;;;5051547;28;20059;-47
2022/05/10 02:35:11;;;;;;;8.10;3.05;;;;;;;;;;5031687;28;20052;-44
2022/05/10 02:37:37;;;;;;;7.47;2.75;;;;;;;;;;5033102;28;20091;-48
2022/05/10 02:40:03;;;;;;;7.05;2.78;;;;;;;;;;5040463;28;20420;-42
2022/05/10 02:42:29;;;;;;;5.47;2.35;;;;;;;;;;5047363;28;20040;-47
2022/05/10 02:44:56;;;;;;;6.65;2.65;;;;;;;;;;5024794;28;20386;-45
2022/05/10 02:47:34;;;;;;;5.88;2.60;;;;;;;;;;5046834;28;20488;-44
2022/05/10 02:50:00;;;;;;;7.20;2.88;;;;;;;;;;5031413;28;20047;-42
2022/05/10 02:52:26;;;;;;;6.07;2.80;;;;;;;;;;5044120;28;20025;-47
2022/05/10 02:55:01;;;;;;;5.18;2.42;;;;;;;;;;5045118;28;20067;-42
2022/05/10 02:57:27;;;;;;;5.03;2.42;;;;;;;;;;5046118;28;20033;-43
2022/05/10 02:59:56;;;;;;;9.52;3.00;;;;;;;;;;5050462;28;20529;-45
2022/05/10 03:02:26;;;;;;;5.28;2.60;;;;;;;;;;5049707;28;20034;-44
2022/05/10 03:04:56;;;;;;;6.32;2.20;;;;;;;;;;5050761;28;20100;-41
2022/05/10 03:07:22;;;;;;;;;;;;;;;;;;5030533;28;20489;-45
2022/05/10 03:09:48;;;;;;;6.15;2.88;;;;;;;;;;5036609;28;19916;-45
2022/05/10 03:12:14;;;;;;;6.07;2.85;;;;;;;;;;5050276;28;20036;-47
2022/05/10 03:14:40;;;;;;;5.82;2.42;;;;;;;;;;5052953;28;20024;-43
2022/05/10 03:17:08;;;;;;;8.23;2.92;;;;;;;;;;5033695;28;20467;-46
2022/05/10 03:19:34;;;;;;;6.22;2.45;;;;;;;;;;5039638;28;20029;-47
2022/05/10 03:22:01;;;;;;;7.22;2.63;;;;;;;;;;5050871;28;20021;-46
2022/05/10 03:24:26;;;;;;;4.47;2.30;;;;;;;;;;5054314;28;20060;-47
2022/05/10 03:26:53;;;;;;;8.60;2.60;;;;;;;;;;5057707;28;20060;-43
2022/05/10 03:29:19;;;;;;;5.05;2.10;;;;;;;;;;5051145;28;20025;-45
2022/05/10 03:31:45;;;;;;;6.25;2.72;;;;;;;;;;5052317;28;20059;-44
2022/05/10 03:36:56;;;;;;;6.80;2.83;;;;;;;;;;5041797;28;20129;-46
2022/05/10 03:39:23;;;;;;;4.50;2.15;;;;;;;;;;5050462;28;20461;-47
2022/05/10 03:41:49;;;;;;;6.50;2.75;;;;;;;;;;5029975;28;20059;-46
2022/05/10 03:44:17;;;;;;;5.85;2.33;;;;;;;;;;5032070;28;20087;-44
2022/05/10 03:46:44;;;;;;;6.32;2.30;;;;;;;;;;5031273;28;20044;-42
2022/05/10 03:49:10;;;;;;;6.70;2.75;;;;;;;;;;5044547;28;20025;-42
2022/05/10 03:51:36;;;;;;;6.25;2.47;;;;;;;;;;5053763;28;20082;-46
2022/05/10 03:54:02;;;;;;;5.28;2.42;;;;;;;;;;5053622;28;20043;-42
2022/05/10 03:56:29;;;;;;;4.95;2.15;;;;;;;;;;5034570;28;20029;-47
2022/05/10 03:58:55;;;;;;;6.90;2.63;;;;;;;;;;5051217;28;20025;-48
2022/05/10 04:01:21;;;;;;;5.15;2.05;;;;;;;;;;5053124;28;20041;-45
2022/05/10 04:03:48;;;;;;;6.30;2.58;;;;;;;;;;5043758;28;20749;-46
2022/05/10 04:06:14;;;;;;;8.52;2.70;;;;;;;;;;5054401;28;20488;-43
2022/05/10 04:08:40;;;;;;;5.55;2.80;;;;;;;;;;5051500;28;20029;-42
2022/05/10 04:11:08;;;;;;;5.40;2.20;;;;;;;;;;5061480;28;20111;-45
2022/05/10 04:13:34;;;;;;;7.43;2.15;;;;;;;;;;5052889;28;20108;-47
2022/05/10 04:16:00;;;;;;;4.47;2.22;;;;;;;;;;5056736;28;20028;-42
2022/05/10 04:18:26;;;;;;;6.07;2.55;;;;;;;;;;5045169;28;20034;-47
2022/05/10 04:20:52;;;;;;;6.28;3.60;;;;;;;;;;5049774;28;20025;-42
2022/05/10 04:23:18;;;;;;;5.82;2.40;;;;;;;;;;5050116;28;20040;-47
2022/05/10 04:25:45;;;;;;;5.47;2.33;;;;;;;;;;5042056;28;20469;-48
2022/05/10 04:28:11;;;;;;;4.22;2.00;;;;;;;;;;5051476;28;20029;-44
2022/05/10 04:30:37;;;;;;;6.38;2.30;;;;;;;;;;5053104;28;20075;-45
2022/05/10 04:33:03;;;;;;;6.28;2.50;;;;;;;;;;5043765;28;20029;-42
2022/05/10 04:35:29;;;;;;;4.43;2.17;;;;;;;;;;5053124;28;20025;-44
2022/05/10 04:37:55;;;;;;;6.40;2.45;;;;;;;;;;5047963;28;20047;-46
2022/05/10 04:43:06;;;;;;;4.78;2.20;;;;;;;;;;5041748;28;20546;-49
2022/05/10 04:45:35;;;;;;;8.70;2.28;;;;;;;;;;5032125;28;20041;-46
2022/05/10 04:48:01;;;;;;;5.05;2.58;;;;;;;;;;5046489;28;20021;-45
2022/05/10 04:50:27;;;;;;;9.95;2.42;;;;;;;;;;5045368;28;20025;-44
2022/05/10 04:52:53;;;;;;;7.78;2.70;;;;;;;;;;5052309;28;20424;-43
2022/05/10 04:55:20;;;;;;;5.47;2.15;;;;;;;;;;5050942;28;20029;-45
2022/05/10 04:57:47;;;;;;;4.45;2.15;;;;;;;;;;5083497;22;20041;-51
2022/05/10 05:00:14;;;;;;;5.72;2.38;;;;;;;;;;5051229;28;20041;-49
2022/05/10 05:02:40;;;;;;;5.47;2.30;;;;;;;;;;5061276;28;20036;-47
2022/05/10 05:05:07;;;;;;;6.30;2.60;;;;;;;;;;5067915;28;20405;-49
2022/05/10 05:07:33;;;;;;;5.13;2.20;;;;;;;;;;5051268;28;20103;-46
2022/05/10 05:09:59;;;;;;;4.82;2.35;;;;;;;;;;5067935;28;20031;-51
2022/05/10 05:12:24;;;;;;;5.03;2.50;;;;;;;;;;5066869;28;20021;-47
2022/05/10 05:14:53;;;;;;;5.78;2.83;;;;;;;;;;5059186;28;20035;-47
2022/05/10 05:17:19;;;;;;;6.40;2.47;;;;;;;;;;5046490;28;20067;-49
2022/05/10 05:19:45;;;;;;;3.65;1.80;;;;;;;;;;5067287;28;20052;-48
2022/05/10 05:22:11;;;;;;;5.53;2.10;;;;;;;;;;5073475;28;20037;-47
2022/05/10 05:24:37;;;;;;;7.22;2.13;;;;;;;;;;5050126;28;20107;-50
2022/05/10 05:27:03;;;;;;;4.82;2.22;;;;;;;;;;5064873;28;20104;-48
2022/05/10 05:29:32;;;;;;;8.43;2.22;;;;;;;;;;5064379;28;20066;-46
2022/05/10 05:31:59;;;;;;;8.38;2.65;;;;;;;;;;5051134;28;20068;-50
2022/05/10 05:34:25;;;;;;;4.70;2.08;;;;;;;;;;5057704;28;20492;-51
2022/05/10 05:39:36;;;;;;;4.53;1.95;;;;;;;;;;5071354;28;20031;-50
2022/05/10 05:42:02;;;;;;;8.48;2.30;;;;;;;;;;5070818;28;20020;-47
2022/05/10 05:44:28;;;;;;;5.35;2.22;;;;;;;;;;5069119;28;20025;-45
2022/05/10 05:46:57;;;;;;;4.57;2.25;;;;;;;;;;5068881;28;20423;-48
2022/05/10 05:49:23;;;;;;;;;;;;;;;;;;5068160;28;20021;-49
2022/05/10 05:51:49;;;;;;;5.28;2.70;;;;;;;;;;5069713;28;19909;-50
2022/05/10 05:54:15;;;;;;;5.88;2.22;;;;;;;;;;5065716;28;20111;-47
2022/05/10 05:56:41;;;;;;;8.02;2.70;;;;;;;;;;5061600;28;20020;-49
2022/05/10 05:59:07;;;;;;;6.70;2.50;;;;;;;;;;5069043;28;20032;-51
2022/05/10 06:01:33;;;;;;;7.72;2.28;;;;;;;;;;5057152;28;20520;-52
2022/05/10 06:03:59;;;;;;;5.30;2.20;;;;;;;;;;5067694;28;20021;-50
2022/05/10 06:06:25;;;;;;;6.57;2.80;;;;;;;;;;5049581;28;20021;-49
2022/05/10 06:08:51;;;;;;;4.80;2.20;;;;;;;;;;5068015;28;20025;-46
2022/05/10 06:11:17;;;;;;;7.57;3.13;;;;;;;;;;5066221;28;20036;-50
2022/05/10 06:13:43;;;;;;;7.03;1.92;;;;;;;;;;5060217;28;20443;-48
2022/05/10 06:16:09;;;;;;;5.28;2.38;;;;;;;;;;5051348;28;20485;-49
2022/05/10 06:18:35;;;;;;;4.78;2.08;;;;;;;;;;5047221;28;20032;-51
2022/05/10 06:21:01;;;;;;;4.88;2.25;;;;;;;;;;5052672;28;20473;-55
2022/05/10 06:23:27;;;;;;;5.30;2.28;;;;;;;;;;5071796;28;20021;-53
2022/05/10 06:25:53;;;;;;;7.68;2.17;;;;;;;;;;5072567;28;20499;-51
2022/05/10 06:28:22;;;;;;;5.90;2.03;;;;;;;;;;5052676;28;20086;-54
2022/05/10 06:30:48;;;;;;;10.75;2.70;;;;;;;;;;5066486;28;20026;-49
2022/05/10 06:33:16;;;;;;;7.68;2.60;;;;;;;;;;5064007;28;20067;-48
2022/05/10 06:35:44;;;;;;;7.05;2.60;;;;;;;;;;5043341;28;20472;-46
2022/05/10 06:38:16;;;;;;;5.78;2.38;;;;;;;;;;5034658;28;20033;-50
2022/05/10 06:40:42;;;;;;;5.28;2.47;;;;;;;;;;5045544;28;20070;-51
2022/05/10 06:43:08;;;;;;;8.27;2.60;;;;;;;;;;5059620;28;20036;-51
2022/05/10 06:45:34;;;;;;;5.35;2.40;;;;;;;;;;5046521;28;20393;-45
2022/05/10 06:48:00;;;;;;;9.43;2.40;;;;;;;;;;5056066;28;20028;-48
2022/05/10 06:50:27;;;;;;;5.53;2.45;;;;;;;;;;5033675;28;20126;-50
2022/05/10 06:52:54;;;;;;;9.35;2.45;;;;;;;;;;5044644;28;20029;-49
2022/05/10 06:55:20;;;;;;;7.40;2.40;;;;;;;;;;5043824;28;20412;-52
2022/05/10 06:57:46;;;;;;;7.13;2.00;;;;;;;;;;5048553;28;20025;-55
2022/05/10 07:00:17;;;;;;;5.90;2.17;;;;;;;;;;5067412;28;20453;-51
2022/05/10 07:02:45;;;;;;;8.95;2.88;;;;;;;;;;5048428;28;20236;-49
2022/05/10 07:05:18;;;;;;;24.48;4.78;;;;;;;;;;5068538;28;20388;-51
2022/05/10 07:07:49;;;;;;;68.30;15.13;;;;;;;;;;5049497;28;20027;-52
2022/05/10 07:10:20;;;;;;;71.15;15.00;;;;;;;;;;5050421;28;20024;-55
2022/05/10 07:12:50;;;;;;;67.60;16.98;;;;;;;;;;5051646;28;20094;-50
2022/05/10 07:15:19;;;;;;;91.78;19.73;;;;;;;;;;5050575;28;20020;-51
2022/05/10 07:17:49;;;;;;;50.42;15.55;;;;;;;;;;5060431;28;20025;-54
2022/05/10 07:20:19;;;;;;;77.32;15.68;;;;;;;;;;5050265;28;20531;-51
2022/05/10 07:22:51;;;;;;;57.55;14.45;;;;;;;;;;5050774;28;20033;-51
2022/05/10 07:25:21;;;;;;;51.42;14.75;;;;;;;;;;5054624;28;20037;-50
2022/05/10 07:27:49;;;;;;;51.85;12.10;;;;;;;;;;5054936;28;20036;-52
2022/05/10 07:30:20;;;;;;;45.85;12.18;;;;;;;;;;5054004;28;20028;-51
2022/05/10 07:32:49;;;;;;;58.15;12.98;;;;;;;;;;5057531;28;20032;-50
2022/05/10 07:38:17;;;;;;;42.75;11.48;;;;;;;;;;5043518;28;20498;-50
2022/05/10 07:40:49;;;;;;;44.33;11.10;;;;;;;;;;5054667;28;20468;-49
2022/05/10 07:43:52;;;;;;;49.67;12.15;;;;;;;;;;5046526;28;20028;-49
2022/05/10 07:46:19;;;;;;;38.60;12.77;;;;;;;;;;5051289;28;20033;-53
2022/05/10 07:48:48;;;;;;;39.13;10.50;;;;;;;;;;5057546;28;20457;-50
2022/05/10 07:51:16;;;;;;;31.63;10.27;;;;;;;;;;5057848;28;20524;-51
2022/05/10 07:53:44;;;;;;;35.38;10.35;;;;;;;;;;5057373;28;20021;-46
2022/05/10 07:56:15;;;;;;;;;;;;;;;;;;5052391;28;20435;-47
2022/05/10 07:58:50;;;;;;;35.78;8.35;;;;;;;;;;5051088;28;19952;-49
2022/05/10 08:01:19;;;;;;;25.83;8.02;;;;;;;;;;5044320;28;20075;-49
2022/05/10 08:03:55;;;;;;;41.08;8.10;;;;;;;;;;5053845;28;20080;-51
2022/05/10 08:06:27;;;;;;;29.27;8.27;;;;;;;;;;5079215;28;20021;-52
2022/05/10 08:09:00;;;;;;;28.75;7.78;;;;;;;;;;5055923;28;20058;-49
2022/05/10 08:11:40;;;;;;;29.02;7.78;;;;;;;;;;5054697;28;20496;-49
2022/05/10 08:14:17;;;;;;;42.58;9.65;;;;;;;;;;5054254;28;20121;-51
2022/05/10 08:16:46;;;;;;;31.35;7.55;;;;;;;;;;5051505;28;20028;-64
2022/05/10 08:19:14;;;;;;;28.33;7.32;;;;;;;;;;5053154;28;20040;-54
2022/05/10 08:21:44;;;;;;;28.52;7.95;;;;;;;;;;5055331;28;20033;-50
2022/05/10 08:24:15;;;;;;;27.13;7.22;;;;;;;;;;5052133;28;20697;-48
2022/05/10 08:26:45;;;;;;;25.95;7.07;;;;;;;;;;5063773;28;20040;-50
2022/05/10 08:29:16;;;;;;;24.98;6.85;;;;;;;;;;5044527;28;20062;-49
2022/05/10 08:31:47;;;;;;;27.05;6.60;;;;;;;;;;5050154;28;20020;-50
2022/05/10 08:34:27;;;;;;;29.98;6.93;;;;;;;;;;5051388;28;20032;-49
2022/05/10 08:36:56;;;;;;;20.55;6.85;;;;;;;;;;5046745;28;20060;-53
2022/05/10 08:39:25;;;;;;;24.95;6.97;;;;;;;;;;5056650;28;20035;-55
2022/05/10 08:41:59;;;;;;;26.55;7.00;;;;;;;;;;5070035;28;20400;-49
2022/05/10 08:44:28;;;;;;;18.08;6.32;;;;;;;;;;5065702;28;20082;-52
2022/05/10 08:47:00;;;;;;;19.15;7.72;;;;;;;;;;5054456;28;20040;-54
2022/05/10 08:49:38;;;;;;;19.00;6.05;;;;;;;;;;5048942;28;20109;-53
2022/05/10 08:52:08;;;;;;;17.02;4.68;;;;;;;;;;5051974;28;20409;-56
2022/05/10 08:54:38;;;;;;;;;;;;;;;;;;5052532;28;20043;-48
2022/05/10 08:57:19;;;;;;;16.48;5.80;;;;;;;;;;5055698;28;20067;-50
2022/05/10 08:59:59;;;;;;;21.38;6.43;;;;;;;;;;5048803;28;20017;-47
2022/05/10 09:02:45;;;;;;;25.33;6.97;;;;;;;;;;5041547;28;20489;-52
2022/05/10 09:05:32;;;;;;;17.25;5.78;;;;;;;;;;5040341;28;20027;-46
2022/05/10 09:08:01;;;;;;;19.02;5.50;;;;;;;;;;5053173;28;20491;-50
2022/05/10 09:10:41;;;;;;;20.95;5.13;;;;;;;;;;5062210;28;20089;-48
2022/05/10 09:13:21;;;;;;;17.25;5.53;;;;;;;;;;5061958;28;20028;-46
2022/05/10 09:15:52;;;;;;;17.63;5.70;;;;;;;;;;5055815;28;20023;-46
2022/05/10 09:18:31;;;;;;;16.90;5.00;;;;;;;;;;5050987;28;20447;-48
2022/05/10 09:21:03;;;;;;;15.27;5.10;;;;;;;;;;5053066;28;20284;-49
2022/05/10 09:23:52;;;;;;;16.10;5.13;;;;;;;;;;5053941;28;20074;-47
2022/05/10 09:26:20;;;;;;;18.75;5.53;;;;;;;;;;5056833;28;20127;-47
2022/05/10 09:28:53;;;;;;;14.30;5.27;;;;;;;;;;5056892;28;20467;-46
2022/05/10 09:37:22;;;;;;;15.75;5.68;;;;;;;;;;5053873;28;20044;-49
2022/05/10 09:39:58;;;;;;;16.60;4.65;;;;;;;;;;5049862;28;20020;-51
2022/05/10 09:42:33;;;;;;;18.15;5.10;;;;;;;;;;5041633;28;20085;-47
2022/05/10 09:45:07;;;;;;;15.68;4.82;;;;;;;;;;5060861;28;20108;-46
2022/05/10 09:47:38;;;;;;;11.57;4.35;;;;;;;;;;5055071;28;20016;-49
2022/05/10 09:50:15;;;;;;;12.73;5.22;;;;;;;;;;5052258;28;20124;-47
2022/05/10 09:52:44;;;;;;;10.85;4.35;;;;;;;;;;5052365;28;20020;-47
2022/05/10 09:55:29;;;;;;;13.60;4.57;;;;;;;;;;5052713;28;20021;-56
2022/05/10 09:57:59;;;;;;;12.77;4.65;;;;;;;;;;5051411;28;20161;-51
2022/05/10 10:00:53;;;;;;;16.50;5.85;;;;;;;;;;5050004;28;20063;-48
2022/05/10 10:03:38;;;;;;;14.73;4.95;;;;;;;;;;5063502;28;20053;-43
2022/05/10 10:06:16;;;;;;;10.90;4.47;;;;;;;;;;5060033;28;20041;-49
2022/05/10 10:08:46;;;;;;;12.18;4.38;;;;;;;;;;5052640;28;20025;-49
2022/05/10 10:11:30;;;;;;;15.52;4.60;;;;;;;;;;5049364;28;20035;-49
2022/05/10 10:14:08;;;;;;;20.65;5.72;;;;;;;;;;5046744;28;20020;-52
2022/05/10 10:16:48;;;;;;;13.90;4.78;;;;;;;;;;5059908;28;20468;-47
2022/05/10 10:19:24;;;;;;;18.65;4.35;;;;;;;;;;5040355;28;20083;-51
2022/05/10 10:21:59;;;;;;;16.58;4.57;;;;;;;;;;5049572;28;20516;-52
2022/05/10 10:24:38;;;;;;;11.10;4.07;;;;;;;;;;5045268;28;20102;-46
2022/05/10 10:27:13;;;;;;;16.10;5.95;;;;;;;;;;5032610;28;20027;-48
2022/05/10 10:29:59;;;;;;;12.73;4.10;;;;;;;;;;5052058;28;20058;-51
2022/05/10 10:32:37;;;;;;;11.02;3.67;;;;;;;;;;5045295;28;20050;-49
2022/05/10 10:35:16;;;;;;;9.65;3.97;;;;;;;;;;5045487;28;20074;-47
2022/05/10 10:37:58;;;;;;;12.02;4.18;;;;;;;;;;5037015;28;20028;-47
2022/05/10 10:40:25;;;;;;;13.45;3.63;;;;;;;;;;5068278;28;20031;-44
2022/05/10 10:42:57;;;;;;;12.57;4.57;;;;;;;;;;5041587;28;20358;-47
2022/05/10 10:45:43;;;;;;;9.80;3.70;;;;;;;;;;5044258;28;20047;-45
2022/05/10 10:48:22;;;;;;;12.55;4.30;;;;;;;;;;5050549;28;20055;-53
2022/05/10 10:50:50;;;;;;;10.35;3.35;;;;;;;;;;5050851;28;20021;-52
2022/05/10 10:53:20;;;;;;;14.82;3.75;;;;;;;;;;5052279;28;20020;-48
2022/05/10 10:56:05;;;;;;;13.60;4.07;;;;;;;;;;5052985;28;20064;-44
2022/05/10 10:58:50;;;;;;;14.55;3.40;;;;;;;;;;5055621;28;20495;-47
2022/05/10 11:01:19;;;;;;;13.02;3.92;;;;;;;;;;5055771;28;20465;-45
2022/05/10 11:04:04;;;;;;;11.57;3.97;;;;;;;;;;5057806;28;20024;-47
2022/05/10 11:06:38;;;;;;;10.38;3.72;;;;;;;;;;5048488;28;20029;-51
2022/05/10 11:09:27;;;;;;;12.95;3.83;;;;;;;;;;5065486;28;20027;-53
2022/05/10 11:12:07;;;;;;;19.17;4.85;;;;;;;;;;5063554;28;20530;-51
2022/05/10 11:14:39;;;;;;;10.63;3.75;;;;;;;;;;5074683;28;20052;-52
2022/05/10 11:17:11;;;;;;;12.07;3.88;;;;;;;;;;5056514;28;20108;-54
2022/05/10 11:19:41;;;;;;;17.55;3.53;;;;;;;;;;5053545;28;20029;-50
2022/05/10 11:22:17;;;;;;;10.30;3.10;;;;;;;;;;5063973;28;20063;-50
2022/05/10 11:25:06;;;;;;;8.68;2.80;;;;;;;;;;5045023;28;20125;-49
2022/05/10 11:27:34;;;;;;;;;;;;;;;;;;5065336;28;20025;-51
2022/05/10 11:33:06;;;;;;;9.13;2.83;;;;;;;;;;5035275;28;20041;-50
2022/05/10 11:35:57;;;;;;;9.38;2.33;;;;;;;;;;5071568;28;20039;-46
2022/05/10 11:38:42;;;;;;;10.52;2.83;;;;;;;;;;5067438;28;20053;-48
2022/05/10 11:41:22;;;;;;;11.10;3.47;;;;;;;;;;5046597;28;20051;-44
2022/05/10 11:44:09;;;;;;;31.52;10.25;;;;;;;;;;5050403;28;20032;-50
2022/05/10 11:46:53;;;;;;;30.42;6.38;;;;;;;;;;5047495;28;20036;-48
2022/05/10 11:49:33;;;;;;;24.17;5.32;;;;;;;;;;5047052;28;20036;-44
2022/05/10 11:52:04;;;;;;;17.10;5.32;;;;;;;;;;5049840;28;20119;-48
2022/05/10 11:54:38;;;;;;;10.68;3.50;;;;;;;;;;5052697;28;20025;-47
2022/05/10 11:57:12;;;;;;;16.92;4.85;;;;;;;;;;5054744;28;20032;-48
2022/05/10 11:59:43;;;;;;;16.13;6.30;;;;;;;;;;5055641;28;20032;-52
2022/05/10 12:02:45;;;;;;;21.77;4.80;;;;;;;;;;5044143;28;20032;-49
2022/05/10 12:05:12;;;;;;;13.18;4.53;;;;;;;;;;5015466;28;20029;-45
2022/05/10 12:07:46;;;;;;;10.68;4.00;;;;;;;;;;5047689;28;20484;-50
2022/05/10 12:10:22;;;;;;;7.75;2.90;;;;;;;;;;5059695;28;20389;-50
2022/05/10 12:12:55;;;;;;;9.40;3.05;;;;;;;;;;5048059;28;20025;-53
2022/05/10 12:21:20;;;;;;;11.18;3.28;;;;;;;;;;5068832;28;20128;-53
2022/05/10 12:24:02;;;;;;;8.35;2.80;;;;;;;;;;5049574;28;20024;-50
2022/05/10 12:26:43;;;;;;;6.30;2.53;;;;;;;;;;5050982;28;20074;-51
2022/05/10 12:29:39;;;;;;;9.23;2.90;;;;;;;;;;5052656;28;20863;-51
2022/05/10 12:32:10;;;;;;;6.60;2.80;;;;;;;;;;5023321;28;20094;-50
2022/05/10 12:34:40;;;;;;;8.40;2.97;;;;;;;;;;5051590;28;20388;-54
2022/05/10 12:37:28;;;;;;;22.02;3.55;;;;;;;;;;5057907;28;20070;-62
2022/05/10 12:40:07;;;;;;;10.30;3.42;;;;;;;;;;5054014;28;20126;-57
2022/05/10 12:42:36;;;;;;;7.97;2.50;;;;;;;;;;5054104;28;20171;-58
2022/05/10 12:45:35;;;;;;;16.00;3.55;;;;;;;;;;5054171;28;20432;-58
2022/05/10 12:48:21;;;;;;;14.23;3.40;;;;;;;;;;5036275;28;20033;-59
2022/05/10 12:50:59;;;;;;;19.20;4.82;;;;;;;;;;5048385;28;20025;-60
2022/05/10 12:53:28;;;;;;;9.98;3.50;;;;;;;;;;5046203;28;20483;-50
2022/05/10 12:56:08;;;;;;;9.25;3.10;;;;;;;;;;5049702;28;20032;-60
2022/05/10 12:58:40;;;;;;;8.90;3.40;;;;;;;;;;5047461;28;20085;-59
2022/05/10 13:01:07;;;;;;;11.35;3.40;;;;;;;;;;5051418;28;20465;-60
2022/05/10 13:03:37;;;;;;;6.15;3.05;;;;;;;;;;5053275;28;20050;-59
2022/05/10 13:06:10;;;;;;;10.40;3.35;;;;;;;;;;5049181;28;20396;-59
2022/05/10 13:08:47;;;;;;;9.57;3.42;;;;;;;;;;5049492;28;20369;-59
2022/05/10 13:11:13;;;;;;;11.40;4.38;;;;;;;;;;5052384;28;20032;-59
2022/05/10 13:13:40;;;;;;;8.40;3.50;;;;;;;;;;5066285;28;20461;-62
2022/05/10 13:16:13;;;;;;;11.07;3.78;;;;;;;;;;5059947;28;20065;-57
2022/05/10 13:18:41;;;;;;;10.02;3.97;;;;;;;;;;5063378;28;20166;-57
2022/05/10 13:21:08;;;;;;;9.50;4.25;;;;;;;;;;5051681;28;20044;-59
2022/05/10 13:23:34;;;;;;;13.02;3.90;;;;;;;;;;5048690;28;20321;-52
2022/05/10 13:26:04;;;;;;;12.43;4.82;;;;;;;;;;5053110;28;20167;-59
2022/05/10 13:28:30;;;;;;;11.45;4.38;;;;;;;;;;5056552;28;20024;-58
2022/05/10 13:30:58;;;;;;;13.45;4.05;;;;;;;;;;5064628;28;20065;-58
2022/05/10 13:33:32;;;;;;;14.73;4.93;;;;;;;;;;5065971;28;20163;-58
2022/05/10 13:36:02;;;;;;;8.40;3.90;;;;;;;;;;5061155;28;20025;-57
2022/05/10 13:38:36;;;;;;;12.32;3.78;;;;;;;;;;5048320;28;20025;-58
2022/05/10 13:41:04;;;;;;;13.15;3.92;;;;;;;;;;5068160;28;20043;-59
2022/05/10 13:43:44;;;;;;;10.95;5.05;;;;;;;;;;5047048;28;20032;-56
2022/05/10 13:46:19;;;;;;;12.00;3.72;;;;;;;;;;5068794;28;20054;-59
2022/05/10 13:48:54;;;;;;;16.17;4.20;;;;;;;;;;5069281;28;20028;-55
2022/05/10 13:51:25;;;;;;;11.20;3.72;;;;;;;;;;5065843;28;20433;-58
2022/05/10 13:53:57;;;;;;;12.60;4.43;;;;;;;;;;5057092;28;20429;-57
2022/05/10 13:56:26;;;;;;;8.93;3.47;;;;;;;;;;5059238;28;20107;-55
2022/05/10 13:58:52;;;;;;;9.65;3.88;;;;;;;;;;5049053;28;20062;-55
2022/05/10 14:01:31;;;;;;;9.93;3.42;;;;;;;;;;5053232;28;20105;-53
2022/05/10 14:04:07;;;;;;;12.13;4.43;;;;;;;;;;5072277;28;20036;-56
2022/05/10 14:06:33;;;;;;;8.30;3.35;;;;;;;;;;5071006;28;20081;-56
2022/05/10 14:09:06;;;;;;;8.45;3.50;;;;;;;;;;5045839;28;20660;-55
2022/05/10 14:11:32;;;;;;;8.50;3.53;;;;;;;;;;5068697;28;20021;-54
2022/05/10 14:14:00;;;;;;;13.95;4.05;;;;;;;;;;5069661;28;20441;-56
2022/05/10 14:16:31;;;;;;;11.32;4.28;;;;;;;;;;5030928;28;20172;-54
2022/05/10 14:18:58;;;;;;;10.40;3.83;;;;;;;;;;5060497;28;20036;-55
2022/05/10 14:21:25;;;;;;;11.45;3.45;;;;;;;;;;5072056;28;20028;-57
2022/05/10 14:23:55;;;;;;;9.73;3.40;;;;;;;;;;5067137;28;20028;-57
2022/05/10 14:26:40;;;;;;;10.20;3.97;;;;;;;;;;5071691;28;20502;-57
2022/05/10 14:29:17;;;;;;;8.13;3.22;;;;;;;;;;5068046;28;20043;-55
2022/05/10 14:31:44;;;;;;;7.20;3.50;;;;;;;;;;5066838;28;20427;-56
2022/05/10 14:34:16;;;;;;;13.52;3.78;;;;;;;;;;5052871;28;20035;-56
2022/05/10 14:36:42;;;;;;;10.27;4.43;;;;;;;;;;5072439;28;20053;-53
2022/05/10 14:39:27;;;;;;;13.32;4.43;;;;;;;;;;5048938;28;20027;-49
2022/05/10 14:41:56;;;;;;;8.73;3.97;;;;;;;;;;5073681;28;20104;-57
2022/05/10 14:44:25;;;;;;;12.07;3.90;;;;;;;;;;5072008;28;20514;-56
2022/05/10 14:46:53;;;;;;;9.32;4.15;;;;;;;;;;5051614;28;20501;-55
2022/05/10 14:49:38;;;;;;;11.90;4.10;;;;;;;;;;5061407;28;20060;-58
2022/05/10 14:52:25;;;;;;;11.30;4.95;;;;;;;;;;5067288;28;20027;-55
2022/05/10 14:54:52;;;;;;;10.60;4.00;;;;;;;;;;5069287;28;20033;-56
2022/05/10 14:57:20;;;;;;;14.15;3.58;;;;;;;;;;5058884;28;20029;-54
2022/05/10 14:59:53;;;;;;;13.97;3.87;;;;;;;;;;5033838;28;20052;-55
2022/05/10 15:02:22;;;;;;;8.23;3.60;;;;;;;;;;5057437;28;20025;-53
2022/05/10 15:04:50;;;;;;;8.77;3.92;;;;;;;;;;5051994;28;20020;-56
2022/05/10 15:07:16;;;;;;;9.70;3.92;;;;;;;;;;5073133;28;20437;-55
2022/05/10 15:09:43;;;;;;;8.38;3.63;;;;;;;;;;5071143;28;20059;-57
2022/05/10 15:14:54;;;;;;;10.90;3.63;;;;;;;;;;5061403;28;20031;-56
2022/05/10 15:17:20;;;;;;;8.82;4.13;;;;;;;;;;5070671;28;20024;-55
2022/05/10 15:19:48;;;;;;;9.30;3.70;;;;;;;;;;5052122;28;20082;-57
2022/05/10 15:22:14;;;;;;;8.75;3.55;;;;;;;;;;5056476;28;20389;-56
2022/05/10 15:24:40;;;;;;;8.80;3.97;;;;;;;;;;5041601;28;20040;-55
2022/05/10 15:27:06;;;;;;;7.18;3.50;;;;;;;;;;5053478;28;20045;-53
2022/05/10 15:29:34;;;;;;;8.65;3.85;;;;;;;;;;5071798;28;20025;-56
2022/05/10 15:32:02;;;;;;;11.18;4.13;;;;;;;;;;5071711;28;20389;-54
2022/05/10 15:34:43;;;;;;;9.68;4.85;;;;;;;;;;5070870;28;20027;-55